createdAt,value
2023-04-25T00:02:15.321Z,7.35
2023-04-25T00:04:42.209Z,5.63
2023-04-25T00:07:09.249Z,5.60
2023-04-25T00:09:36.044Z,5.63
2023-04-25T00:12:02.787Z,4.85
2023-04-25T00:14:30.753Z,5.78
2023-04-25T00:16:57.493Z,6.03
2023-04-25T00:19:24.262Z,6.72
2023-04-25T00:21:51.072Z,4.93
2023-04-25T00:24:17.859Z,6.65
2023-04-25T00:26:44.826Z,6.57
2023-04-25T00:29:11.614Z,7.28
2023-04-25T00:31:38.430Z,7.00
2023-04-25T00:34:05.523Z,6.40
2023-04-25T00:36:32.410Z,10.02
2023-04-25T00:38:59.203Z,9.05
2023-04-25T00:41:27.963Z,10.98
2023-04-25T00:43:56.084Z,8.32
2023-04-25T00:46:23.217Z,10.75
2023-04-25T00:48:50.141Z,7.85
2023-04-25T00:51:21.997Z,8.45
2023-04-25T00:53:52.482Z,8.15
2023-04-25T00:56:19.705Z,9.95
2023-04-25T00:58:46.735Z,8.20
2023-04-25T01:01:14.402Z,9.38
2023-04-25T01:03:42.182Z,11.38
2023-04-25T01:06:10.906Z,8.52
2023-04-25T01:08:39.956Z,11.57
2023-04-25T01:11:07.837Z,8.65
2023-04-25T01:13:35.781Z,6.45
2023-04-25T01:16:03.439Z,7.80
2023-04-25T01:18:30.324Z,7.90
2023-04-25T01:20:58.332Z,7.05
2023-04-25T01:23:25.178Z,8.70
2023-04-25T01:25:52.328Z,9.73
2023-04-25T01:28:19.312Z,8.93
2023-04-25T01:30:47.150Z,7.57
2023-04-25T01:33:16.544Z,9.10
2023-04-25T01:35:43.364Z,9.73
2023-04-25T01:38:10.089Z,8.70
2023-04-25T01:40:41.083Z,9.80
2023-04-25T01:43:11.957Z,7.63
2023-04-25T01:45:42.312Z,9.80
2023-04-25T01:48:10.982Z,9.85
2023-04-25T01:50:39.451Z,10.32
2023-04-25T01:53:06.666Z,10.43
2023-04-25T01:55:33.406Z,9.45
2023-04-25T01:58:01.516Z,11.07
2023-04-25T02:00:28.244Z,10.32
2023-04-25T02:02:55.059Z,12.70
2023-04-25T02:05:21.833Z,11.73
2023-04-25T02:07:48.897Z,8.82
2023-04-25T02:10:16.003Z,10.27
2023-04-25T02:12:42.801Z,9.25
2023-04-25T02:15:10.099Z,9.20
2023-04-25T02:17:37.139Z,10.73
2023-04-25T02:20:04.260Z,11.80
2023-04-25T02:22:31.614Z,9.43
2023-04-25T02:24:58.984Z,9.23
2023-04-25T02:27:25.891Z,9.30
2023-04-25T02:29:52.958Z,8.70
2023-04-25T02:32:19.690Z,9.73
2023-04-25T02:34:46.499Z,7.97
2023-04-25T02:37:13.312Z,8.05
2023-04-25T02:39:40.039Z,9.65
2023-04-25T02:42:06.789Z,9.63
2023-04-25T02:44:33.481Z,8.25
2023-04-25T02:47:00.254Z,8.20
2023-04-25T02:49:27.060Z,7.60
2023-04-25T02:51:53.766Z,8.88
2023-04-25T02:54:20.477Z,9.07
2023-04-25T02:56:47.185Z,8.20
2023-04-25T02:59:14.106Z,8.88
2023-04-25T03:01:40.802Z,6.82
2023-04-25T03:04:07.584Z,8.35
2023-04-25T03:06:34.318Z,8.27
2023-04-25T03:09:01.147Z,7.80
2023-04-25T03:11:27.950Z,6.75
2023-04-25T03:13:54.618Z,7.18
2023-04-25T03:16:21.932Z,8.15
2023-04-25T03:18:48.977Z,6.43
2023-04-25T03:21:15.799Z,6.53
2023-04-25T03:23:42.539Z,5.65
2023-04-25T03:26:09.324Z,5.30
2023-04-25T03:28:36.007Z,5.38
2023-04-25T03:31:02.829Z,5.82
2023-04-25T03:33:29.533Z,5.05
2023-04-25T03:35:56.299Z,5.32
2023-04-25T03:38:23.058Z,5.78
2023-04-25T03:40:51.658Z,4.80
2023-04-25T03:43:18.709Z,4.30
2023-04-25T03:45:45.453Z,4.57
2023-04-25T03:48:12.545Z,5.70
2023-04-25T03:50:39.219Z,6.53
2023-04-25T03:53:05.966Z,4.32
2023-04-25T03:55:32.856Z,5.53
2023-04-25T03:57:59.975Z,7.10
2023-04-25T04:00:26.845Z,5.05
2023-04-25T04:02:53.842Z,4.35
2023-04-25T04:05:20.774Z,5.00
2023-04-25T04:07:47.587Z,4.72
2023-04-25T04:10:14.306Z,5.25
2023-04-25T04:12:41.308Z,4.40
2023-04-25T04:15:08.762Z,6.70
2023-04-25T04:17:35.799Z,5.18
2023-04-25T04:20:04.468Z,5.90
2023-04-25T04:22:31.257Z,4.95
2023-04-25T04:24:57.969Z,6.00
2023-04-25T04:27:24.758Z,6.55
2023-04-25T04:29:53.317Z,7.70
2023-04-25T04:32:20.040Z,6.88
2023-04-25T04:34:48.392Z,6.38
2023-04-25T04:37:15.759Z,9.05
2023-04-25T04:39:42.603Z,8.50
2023-04-25T04:42:09.695Z,9.43
2023-04-25T04:44:36.502Z,9.93
2023-04-25T04:47:07.217Z,11.77
2023-04-25T04:49:34.112Z,9.88
2023-04-25T04:52:01.872Z,12.05
2023-04-25T04:54:28.629Z,13.45
2023-04-25T04:56:55.621Z,15.82
2023-04-25T04:59:22.582Z,15.98
2023-04-25T05:01:49.320Z,15.27
2023-04-25T05:04:16.204Z,15.20
2023-04-25T05:06:43.023Z,14.45
2023-04-25T05:09:09.746Z,17.10
2023-04-25T05:11:36.632Z,14.63
2023-04-25T05:14:03.791Z,16.38
2023-04-25T05:16:30.924Z,17.27
2023-04-25T05:18:57.687Z,18.58
2023-04-25T05:21:24.461Z,16.60
2023-04-25T05:23:51.389Z,14.18
2023-04-25T05:26:18.241Z,18.35
2023-04-25T05:28:44.994Z,22.20
2023-04-25T05:31:11.797Z,18.77
2023-04-25T05:33:38.575Z,18.08
2023-04-25T05:36:05.668Z,21.55
2023-04-25T05:38:34.646Z,18.45
2023-04-25T05:41:01.932Z,15.77
2023-04-25T05:43:28.998Z,17.27
2023-04-25T05:45:55.819Z,21.52
2023-04-25T05:48:22.700Z,22.92
2023-04-25T05:50:49.419Z,21.75
2023-04-25T05:53:16.122Z,21.30
2023-04-25T05:55:42.946Z,18.25
2023-04-25T05:58:09.650Z,16.17
2023-04-25T06:00:36.482Z,16.98
2023-04-25T06:03:03.527Z,16.23
2023-04-25T06:05:30.835Z,12.40
2023-04-25T06:07:57.735Z,13.70
2023-04-25T06:10:24.406Z,12.18
2023-04-25T06:12:51.082Z,12.13
2023-04-25T06:15:28.118Z,9.77
2023-04-25T06:17:55.958Z,8.43
2023-04-25T06:20:25.093Z,10.00
2023-04-25T06:22:54.809Z,10.85
2023-04-25T06:25:22.035Z,7.72
2023-04-25T06:27:48.808Z,10.20
2023-04-25T06:30:16.207Z,11.27
2023-04-25T06:32:42.990Z,9.48
2023-04-25T06:35:10.041Z,8.45
2023-04-25T06:37:36.709Z,8.95
2023-04-25T06:40:03.687Z,10.73
2023-04-25T06:42:30.454Z,8.30
2023-04-25T06:44:57.179Z,11.15
2023-04-25T06:47:23.968Z,6.53
2023-04-25T06:49:51.044Z,7.47
2023-04-25T06:52:19.072Z,7.10
2023-04-25T06:54:46.281Z,8.38
2023-04-25T06:57:13.127Z,6.43
2023-04-25T06:59:39.972Z,7.30
2023-04-25T07:02:07.098Z,8.38
2023-04-25T07:04:34.114Z,8.32
2023-04-25T07:07:03.604Z,5.03
2023-04-25T07:09:30.943Z,6.35
2023-04-25T07:11:57.697Z,7.05
2023-04-25T07:14:25.027Z,6.30
2023-04-25T07:16:51.806Z,5.60
2023-04-25T07:19:18.496Z,8.35
2023-04-25T07:21:45.196Z,7.28
2023-04-25T07:24:11.963Z,6.55
2023-04-25T07:26:38.624Z,6.05
2023-04-25T07:29:05.872Z,6.68
2023-04-25T07:31:32.597Z,3.80
2023-04-25T07:34:01.767Z,6.68
2023-04-25T07:36:28.942Z,4.28
2023-04-25T07:38:55.795Z,2.67
2023-04-25T07:41:22.520Z,2.92
2023-04-25T07:43:49.488Z,2.95
2023-04-25T07:46:16.269Z,5.57
2023-04-25T07:48:43.004Z,5.80
2023-04-25T07:51:09.947Z,2.72
2023-04-25T07:53:38.576Z,4.07
2023-04-25T07:56:05.649Z,6.13
2023-04-25T07:58:32.497Z,5.45
2023-04-25T08:00:59.241Z,2.53
2023-04-25T08:03:26.370Z,4.28
2023-04-25T08:05:53.445Z,5.13
2023-04-25T08:08:20.263Z,5.43
2023-04-25T08:10:49.015Z,4.53
2023-04-25T08:13:15.975Z,3.63
2023-04-25T08:15:42.882Z,2.15
2023-04-25T08:18:09.755Z,5.20
2023-04-25T08:20:36.775Z,2.13
2023-04-25T08:23:03.589Z,5.28
2023-04-25T08:25:30.309Z,5.15
2023-04-25T08:27:58.301Z,4.28
2023-04-25T08:30:25.061Z,4.80
2023-04-25T08:32:52.105Z,2.78
2023-04-25T08:35:19.156Z,1.58
2023-04-25T08:37:45.915Z,3.15
2023-04-25T08:40:16.945Z,2.03
2023-04-25T08:42:44.031Z,1.77
2023-04-25T08:45:11.523Z,5.38
2023-04-25T08:47:40.927Z,4.55
2023-04-25T08:50:08.256Z,2.95
2023-04-25T08:52:44.879Z,5.88
2023-04-25T08:55:13.685Z,1.70
2023-04-25T08:57:43.843Z,2.35
2023-04-25T09:00:13.424Z,2.38
2023-04-25T09:02:41.358Z,1.63
2023-04-25T09:05:10.800Z,3.00
2023-04-25T09:07:37.827Z,0.82
2023-04-25T09:10:04.972Z,4.57
2023-04-25T09:12:32.757Z,3.25
2023-04-25T09:15:11.423Z,0.90
2023-04-25T09:17:41.658Z,3.22
2023-04-25T09:20:13.581Z,2.35
2023-04-25T09:22:40.378Z,1.13
2023-04-25T09:25:16.947Z,1.27
2023-04-25T09:27:53.955Z,1.88
2023-04-25T09:30:31.333Z,2.00
2023-04-25T09:33:04.616Z,0.80
2023-04-25T09:35:40.186Z,2.63
2023-04-25T09:38:12.120Z,5.97
2023-04-25T09:40:47.563Z,1.55
2023-04-25T09:43:24.946Z,1.80
2023-04-25T09:45:54.722Z,3.22
2023-04-25T09:48:23.216Z,1.10
2023-04-25T09:51:10.612Z,2.40
2023-04-25T09:53:39.887Z,1.02
2023-04-25T09:56:08.794Z,3.15
2023-04-25T09:58:37.032Z,1.33
2023-04-25T10:01:08.770Z,2.47
2023-04-25T10:03:37.947Z,3.05
2023-04-25T10:06:09.441Z,3.78
2023-04-25T10:11:06.167Z,2.47
2023-04-25T10:13:33.888Z,1.48
2023-04-25T10:16:03.038Z,1.35
2023-04-25T10:18:31.013Z,5.35
2023-04-25T10:21:00.447Z,4.40
2023-04-25T10:23:28.554Z,4.50
2023-04-25T10:25:55.807Z,2.78
2023-04-25T10:28:22.668Z,5.20
2023-04-25T10:30:59.333Z,1.42
2023-04-25T10:33:40.892Z,4.78
2023-04-25T10:36:24.119Z,1.75
2023-04-25T10:38:52.120Z,1.83
2023-04-25T10:41:20.704Z,0.88
2023-04-25T10:43:49.027Z,0.77
2023-04-25T10:46:31.804Z,3.05
2023-04-25T10:49:01.046Z,0.60
2023-04-25T10:51:43.379Z,1.98
2023-04-25T10:54:21.236Z,1.83
2023-04-25T10:56:50.257Z,2.50
2023-04-25T10:59:22.480Z,0.50
2023-04-25T11:01:53.943Z,1.33
2023-04-25T11:07:10.277Z,3.17
2023-04-25T11:09:40.048Z,0.95
2023-04-25T11:12:09.866Z,1.95
2023-04-25T11:14:37.320Z,3.03
2023-04-25T11:17:04.258Z,2.40
2023-04-25T11:19:31.500Z,3.38
2023-04-25T11:22:02.703Z,3.20
2023-04-25T11:24:30.066Z,2.60
2023-04-25T11:26:57.711Z,1.35
2023-04-25T11:29:27.443Z,1.60
2023-04-25T11:31:58.920Z,0.95
2023-04-25T11:34:26.943Z,1.52
2023-04-25T11:36:54.312Z,0.70
2023-04-25T11:39:21.757Z,1.58
2023-04-25T11:41:48.823Z,2.20
2023-04-25T11:44:19.395Z,0.75
2023-04-25T11:46:46.959Z,1.13
2023-04-25T11:49:15.561Z,3.28
2023-04-25T11:51:44.493Z,6.00
2023-04-25T11:54:12.829Z,2.08
2023-04-25T11:56:43.716Z,1.45
2023-04-25T11:59:11.381Z,3.13
2023-04-25T12:01:41.029Z,2.50
2023-04-25T12:04:15.934Z,1.52
2023-04-25T12:06:44.490Z,2.50
2023-04-25T12:09:14.026Z,3.42
2023-04-25T12:11:54.326Z,1.20
2023-04-25T12:14:29.199Z,0.90
2023-04-25T12:16:58.857Z,1.90
2023-04-25T12:19:27.009Z,1.48
2023-04-25T12:21:58.543Z,0.77
2023-04-25T12:24:28.336Z,1.38
2023-04-25T12:27:02.351Z,0.95
2023-04-25T12:29:38.291Z,4.05
2023-04-25T12:32:14.999Z,1.65
2023-04-25T12:34:41.954Z,1.05
2023-04-25T12:37:08.672Z,1.42
2023-04-25T12:39:35.603Z,0.80
2023-04-25T12:42:02.366Z,1.38
2023-04-25T12:44:29.043Z,2.72
2023-04-25T12:46:56.618Z,1.52
2023-04-25T12:49:24.624Z,1.63
2023-04-25T12:51:52.658Z,1.83
2023-04-25T12:54:19.376Z,0.85
2023-04-25T12:56:47.283Z,1.30
2023-04-25T12:59:14.020Z,5.88
2023-04-25T13:01:40.894Z,1.67
2023-04-25T13:04:07.757Z,0.70
2023-04-25T13:06:34.529Z,1.23
2023-04-25T13:09:01.376Z,2.03
2023-04-25T13:11:28.102Z,1.88
2023-04-25T13:13:54.920Z,1.45
2023-04-25T13:16:22.518Z,2.47
2023-04-25T13:18:49.790Z,3.17
2023-04-25T13:21:16.553Z,1.30
2023-04-25T13:23:47.600Z,1.60
2023-04-25T13:26:14.469Z,0.68
2023-04-25T13:28:43.561Z,4.15
2023-04-25T13:31:12.011Z,4.57
2023-04-25T13:33:38.790Z,3.70
2023-04-25T13:36:06.681Z,1.00
2023-04-25T13:38:33.649Z,1.77
2023-04-25T13:41:00.600Z,1.92
2023-04-25T13:43:27.343Z,2.60
2023-04-25T13:45:54.128Z,0.60
2023-04-25T13:48:21.288Z,3.30
2023-04-25T13:50:48.059Z,2.47
2023-04-25T13:53:14.737Z,0.68
2023-04-25T13:55:41.474Z,0.60
2023-04-25T13:58:09.059Z,4.63
2023-04-25T14:00:40.509Z,6.03
2023-04-25T14:05:40.920Z,0.55
2023-04-25T14:10:35.745Z,1.33
2023-04-25T14:13:04.363Z,1.58
2023-04-25T14:15:34.598Z,3.13
2023-04-25T14:18:02.203Z,1.00
2023-04-25T14:20:29.429Z,0.98
2023-04-25T14:22:58.054Z,0.63
2023-04-25T14:25:25.451Z,2.95
2023-04-25T14:27:52.684Z,1.13
2023-04-25T14:30:21.399Z,1.30
2023-04-25T14:32:49.766Z,1.48
2023-04-25T14:35:16.849Z,2.55
2023-04-25T14:37:43.662Z,0.80
2023-04-25T14:40:11.744Z,0.70
2023-04-25T14:42:38.760Z,0.75
2023-04-25T14:45:08.297Z,1.90
2023-04-25T14:47:35.877Z,1.00
2023-04-25T14:50:03.217Z,1.02
2023-04-25T14:52:30.194Z,0.50
2023-04-25T14:54:57.159Z,1.95
2023-04-25T14:57:23.874Z,1.15
2023-04-25T14:59:50.567Z,0.43
2023-04-25T15:02:17.362Z,1.15
2023-04-25T15:04:44.387Z,1.95
2023-04-25T15:07:11.345Z,0.45
2023-04-25T15:09:38.086Z,0.43
2023-04-25T15:12:05.115Z,1.65
2023-04-25T15:14:32.247Z,2.75
2023-04-25T15:16:59.056Z,0.47
2023-04-25T15:19:25.944Z,0.65
2023-04-25T15:21:52.735Z,0.40
2023-04-25T15:24:19.593Z,0.57
2023-04-25T15:26:46.976Z,0.80
2023-04-25T15:29:13.918Z,0.80
2023-04-25T15:31:40.637Z,1.73
2023-04-25T15:34:07.444Z,1.00
2023-04-25T15:36:34.185Z,0.50
2023-04-25T15:39:00.950Z,2.83
2023-04-25T15:41:27.670Z,0.60
2023-04-25T15:43:54.983Z,0.50
2023-04-25T15:46:24.656Z,2.28
2023-04-25T15:48:51.705Z,0.77
2023-04-25T15:51:18.436Z,0.55
2023-04-25T15:53:45.328Z,0.65
2023-04-25T15:56:12.030Z,0.40
2023-04-25T15:58:38.718Z,0.82
2023-04-25T16:01:05.575Z,0.70
2023-04-25T16:03:34.473Z,0.40
2023-04-25T16:06:03.094Z,0.40
2023-04-25T16:08:34.161Z,0.85
2023-04-25T16:11:01.306Z,0.85
2023-04-25T16:13:30.290Z,0.40
2023-04-25T16:15:57.797Z,0.55
2023-04-25T16:18:24.744Z,0.40
2023-04-25T16:20:51.535Z,1.80
2023-04-25T16:23:18.753Z,1.90
2023-04-25T16:25:45.859Z,0.43
2023-04-25T16:28:12.747Z,1.00
2023-04-25T16:30:39.607Z,0.38
2023-04-25T16:33:06.341Z,0.63
2023-04-25T16:35:33.261Z,0.60
2023-04-25T16:38:01.022Z,1.50
2023-04-25T16:40:27.849Z,2.42
2023-04-25T16:42:54.637Z,0.57
2023-04-25T16:45:21.901Z,0.50
2023-04-25T16:47:48.901Z,1.67
2023-04-25T16:50:16.613Z,1.00
2023-04-25T16:52:44.634Z,0.57
2023-04-25T16:55:11.578Z,3.65
2023-04-25T16:57:38.331Z,0.40
2023-04-25T17:00:06.781Z,0.55
2023-04-25T17:02:33.622Z,0.70
2023-04-25T17:05:00.490Z,1.05
2023-04-25T17:07:27.893Z,0.88
2023-04-25T17:09:54.699Z,1.08
2023-04-25T17:12:21.827Z,0.70
2023-04-25T17:14:49.963Z,1.88
2023-04-25T17:17:18.840Z,1.50
2023-04-25T17:19:46.564Z,1.02
2023-04-25T17:22:13.449Z,0.77
2023-04-25T17:24:40.794Z,1.77
2023-04-25T17:27:08.397Z,0.20
2023-04-25T17:29:35.470Z,1.13
2023-04-25T17:32:03.464Z,0.03
2023-04-25T17:34:31.814Z,1.65
2023-04-25T17:36:58.743Z,2.05
2023-04-25T17:39:25.675Z,0.50
2023-04-25T17:41:52.845Z,0.57
2023-04-25T17:44:19.584Z,0.25
2023-04-25T17:46:46.447Z,2.45
2023-04-25T17:49:13.608Z,3.50
2023-04-25T17:51:40.841Z,2.47
2023-04-25T17:54:08.612Z,1.38
2023-04-25T17:56:39.599Z,0.85
2023-04-25T17:59:07.146Z,0.10
2023-04-25T18:01:34.021Z,2.72
2023-04-25T18:04:01.742Z,0.93
2023-04-25T18:06:29.355Z,0.30
2023-04-25T18:08:57.371Z,1.15
2023-04-25T18:11:25.153Z,0.55
2023-04-25T18:13:52.242Z,0.10
2023-04-25T18:16:20.678Z,0.50
2023-04-25T18:18:53.696Z,0.20
2023-04-25T18:21:20.982Z,2.38
2023-04-25T18:23:47.867Z,0.93
2023-04-25T18:26:15.991Z,1.00
2023-04-25T18:28:43.147Z,0.60
2023-04-25T18:31:10.529Z,1.70
2023-04-25T18:33:37.250Z,0.70
2023-04-25T18:36:04.293Z,0.30
2023-04-25T18:38:35.853Z,2.17
2023-04-25T18:41:26.963Z,1.90
2023-04-25T18:43:51.914Z,0.35
2023-04-25T18:46:22.477Z,0.30
2023-04-25T18:48:51.767Z,0.57
2023-04-25T18:51:19.503Z,1.98
2023-04-25T18:53:46.904Z,0.80
2023-04-25T18:56:15.046Z,0.25
2023-04-25T18:58:42.779Z,0.28
2023-04-25T19:01:10.840Z,1.15
2023-04-25T19:03:38.292Z,0.25
2023-04-25T19:06:05.636Z,1.40
2023-04-25T19:08:32.487Z,1.10
2023-04-25T19:11:07.699Z,0.57
2023-04-25T19:13:41.639Z,0.28
2023-04-25T19:16:09.116Z,0.73
2023-04-25T19:18:36.108Z,0.32
2023-04-25T19:21:05.567Z,0.52
2023-04-25T19:23:33.176Z,1.30
2023-04-25T19:26:00.891Z,1.13
2023-04-25T19:28:29.521Z,1.20
2023-04-25T19:30:57.875Z,1.33
2023-04-25T19:33:24.915Z,2.53
2023-04-25T19:35:52.119Z,1.67
2023-04-25T19:38:19.195Z,1.00
2023-04-25T19:40:46.317Z,0.80
2023-04-25T19:43:13.912Z,0.73
2023-04-25T19:45:40.928Z,0.60
2023-04-25T19:48:10.396Z,4.43
2023-04-25T19:50:37.498Z,0.45
2023-04-25T19:53:04.756Z,3.38
2023-04-25T19:55:32.355Z,3.08
2023-04-25T19:58:03.981Z,1.38
2023-04-25T20:00:35.137Z,1.30
2023-04-25T20:03:03.054Z,2.40
2023-04-25T20:05:34.264Z,0.45
2023-04-25T20:08:01.181Z,0.30
2023-04-25T20:10:35.045Z,1.17
2023-04-25T20:13:02.932Z,0.68
2023-04-25T20:15:32.635Z,2.95
2023-04-25T20:18:00.169Z,0.47
2023-04-25T20:20:28.118Z,2.80
2023-04-25T20:22:55.669Z,0.40
2023-04-25T20:25:26.138Z,1.00
2023-04-25T20:27:52.970Z,0.85
2023-04-25T20:30:23.335Z,1.48
2023-04-25T20:32:50.443Z,1.67
2023-04-25T20:35:17.561Z,1.30
2023-04-25T20:37:44.438Z,0.68
2023-04-25T20:40:12.215Z,4.28
2023-04-25T20:42:39.097Z,0.40
2023-04-25T20:45:07.995Z,1.88
2023-04-25T20:47:39.278Z,0.68
2023-04-25T20:50:07.567Z,0.55
2023-04-25T20:52:35.623Z,1.67
2023-04-25T20:55:02.510Z,0.60
2023-04-25T20:57:29.433Z,1.80
2023-04-25T20:59:57.583Z,0.70
2023-04-25T21:02:24.554Z,0.73
2023-04-25T21:04:51.889Z,3.00
2023-04-25T21:07:19.356Z,3.10
2023-04-25T21:09:49.742Z,0.40
2023-04-25T21:12:16.895Z,0.82
2023-04-25T21:14:43.731Z,3.38
2023-04-25T21:17:13.947Z,1.50
2023-04-25T21:19:44.337Z,1.05
2023-04-25T21:22:11.772Z,2.83
2023-04-25T21:24:38.829Z,1.05
2023-04-25T21:27:05.773Z,1.27
2023-04-25T21:29:33.124Z,1.10
2023-04-25T21:32:00.990Z,0.45
2023-04-25T21:34:28.032Z,2.22
2023-04-25T21:36:58.439Z,1.30
2023-04-25T21:39:25.947Z,0.40
2023-04-25T21:41:53.056Z,0.50
2023-04-25T21:44:20.192Z,1.23
2023-04-25T21:46:51.293Z,0.77
2023-04-25T21:49:18.677Z,0.60
2023-04-25T21:51:45.868Z,1.52
2023-04-25T21:54:13.082Z,3.33
2023-04-25T21:56:43.965Z,4.50
2023-04-25T21:59:10.956Z,0.75
2023-04-25T22:01:38.950Z,0.38
2023-04-25T22:04:10.453Z,2.65
2023-04-25T22:06:37.607Z,0.90
2023-04-25T22:09:08.248Z,1.15
2023-04-25T22:11:40.696Z,0.40
2023-04-25T22:14:08.138Z,3.80
2023-04-25T22:16:35.399Z,0.57
2023-04-25T22:19:05.899Z,0.68
2023-04-25T22:21:33.069Z,2.00
2023-04-25T22:24:00.308Z,1.15
2023-04-25T22:26:27.345Z,0.30
2023-04-25T22:28:54.637Z,0.50
2023-04-25T22:31:22.098Z,1.10
2023-04-25T22:33:49.243Z,0.43
2023-04-25T22:36:18.009Z,0.57
2023-04-25T22:38:45.245Z,0.50
2023-04-25T22:41:12.267Z,0.30
2023-04-25T22:43:42.236Z,4.45
2023-04-25T22:46:19.287Z,0.85
2023-04-25T22:48:47.757Z,4.47
2023-04-25T22:51:15.815Z,1.70
2023-04-25T22:53:43.255Z,2.35
2023-04-25T22:56:10.477Z,0.68
2023-04-25T22:58:38.512Z,2.28
2023-04-25T23:01:09.790Z,1.38
2023-04-25T23:03:36.813Z,0.75
2023-04-25T23:06:04.318Z,0.50
2023-04-25T23:08:31.616Z,3.42
2023-04-25T23:10:58.753Z,1.50
2023-04-25T23:13:32.134Z,1.52
2023-04-25T23:16:09.135Z,1.00
2023-04-25T23:18:37.152Z,1.00
2023-04-25T23:21:04.829Z,0.63
2023-04-25T23:23:32.430Z,1.05
2023-04-25T23:25:59.471Z,4.65
2023-04-25T23:28:26.799Z,2.75
2023-04-25T23:30:53.808Z,3.90
2023-04-25T23:33:20.805Z,1.77
2023-04-25T23:35:48.039Z,2.20
2023-04-25T23:38:16.891Z,1.00
2023-04-25T23:40:43.996Z,1.13
2023-04-25T23:43:12.479Z,1.58
2023-04-25T23:45:40.387Z,1.92
2023-04-25T23:48:07.740Z,4.05
2023-04-25T23:50:34.729Z,0.70
2023-04-25T23:53:02.452Z,1.33
2023-04-25T23:55:32.745Z,2.40
2023-04-25T23:58:03.776Z,1.95
